M\v Black Rhino — V7TR7 — position and weather

sailwx.info

Track history (hours):
 
Tides and Currents Weather Stations Pressure Air Temp Water Temp Dewpoint Dewpoint Depression Visibility Wind Speed Wind Dir Waves Ship Positions

M\v Black Rhino

Last reported at 2014-Jul-28 00:33 UTC. Time now 2014-Jul-28 04:20 UTC.
Position S 29°14' E 031°50'.

Length 100 m; draft 5.3 m.

Type: Cargo ship. MMSI: 538090408.

Date/timePositionNaut miles runAvg speedWind from/ knotsBaromVisibWave heightAir tempDewpointWater temp
2014-Jul-28 00:33S 29°14' E 031°50'1111.2
2014-Jul-27 23:33S 29°22' E 031°40'1211.6
2014-Jul-27 22:33S 29°30' E 031°31'1111.4
2014-Jul-27 21:33S 29°37' E 031°21'1111.4
2014-Jul-27 20:33S 29°45' E 031°12'1110.8
2014-Jul-27 19:33S 29°53' E 031°03'0 0.3
2014-Jul-27 18:33S 29°52' E 031°03'0 0.0
2014-Jul-27 17:19S 29°52' E 031°03'0 0.0
2014-Jul-27 16:25S 29°52' E 031°03'0 0.0
2014-Jul-27 15:28S 29°52' E 031°03'0 0.0
2014-Jul-27 14:28S 29°52' E 031°03'0 0.0
2014-Jul-27 13:28S 29°52' E 031°03'0 0.0
2014-Jul-27 12:28S 29°52' E 031°03'0 0.0
2014-Jul-27 11:28S 29°52' E 031°03'0 0.0
2014-Jul-27 10:28S 29°52' E 031°03'0 0.0
2014-Jul-27 09:28S 29°52' E 031°03'0 0.0
2014-Jul-27 08:28S 29°52' E 031°03'0 0.0
2014-Jul-27 07:28S 29°52' E 031°03'0 0.0
2014-Jul-27 06:28S 29°52' E 031°03'0 0.0
2014-Jul-27 05:28S 29°52' E 031°03'0 0.0
2014-Jul-27 04:28S 29°52' E 031°03'0 0.0
2014-Jul-27 03:28S 29°52' E 031°03'0 0.0
2014-Jul-27 02:28S 29°52' E 031°03'0 0.0
2014-Jul-27 01:28S 29°52' E 031°03'0 0.0
2014-Jul-27 00:22S 29°52' E 031°03'0 0.0
2014-Jul-26 23:28S 29°52' E 031°03'0 0.0
2014-Jul-26 22:28S 29°52' E 031°03'0 0.0
2014-Jul-26 21:28S 29°52' E 031°03'0 0.0
2014-Jul-26 20:28S 29°52' E 031°03'0 0.0
2014-Jul-26 19:28S 29°52' E 031°03'0 0.0
2014-Jul-26 18:16S 29°52' E 031°03'0 0.0
2014-Jul-26 17:22S 29°52' E 031°03'0 0.0
2014-Jul-26 16:28S 29°52' E 031°03'0 0.0
2014-Jul-26 15:28S 29°52' E 031°03'0 0.0
2014-Jul-26 14:28S 29°52' E 031°03'0 0.0
2014-Jul-26 13:28S 29°52' E 031°03'0 0.0
2014-Jul-26 12:22S 29°52' E 031°03'0 0.0
2014-Jul-26 11:28S 29°52' E 031°03'0 0.0
2014-Jul-26 10:28S 29°52' E 031°03'0 0.0
2014-Jul-26 09:28S 29°52' E 031°03'0 0.0
2014-Jul-26 08:28S 29°52' E 031°03'0 0.0
2014-Jul-26 07:28S 29°52' E 031°03'0 0.0
2014-Jul-26 06:28S 29°52' E 031°03'0 0.0
2014-Jul-26 05:28S 29°52' E 031°03'0 0.0
2014-Jul-26 04:28S 29°52' E 031°03'0 0.0
2014-Jul-26 03:28S 29°52' E 031°03'0 0.0
2014-Jul-26 02:28S 29°52' E 031°03'0 0.0
2014-Jul-26 01:28S 29°52' E 031°03'4 4.2
2014-Jul-26 00:33S 29°49' E 031°05'7 7.2
2014-Jul-25 23:33S 29°47' E 031°13'1 1.3
2014-Jul-25 22:33S 29°47' E 031°12'2 1.9
2014-Jul-25 21:33S 29°47' E 031°09'5 5.3
2014-Jul-25 20:33S 29°44' E 031°14'10 9.8
2014-Jul-25 19:33S 29°37' E 031°22'1111.3
2014-Jul-25 18:33S 29°29' E 031°31'1211.8
2014-Jul-25 17:33S 29°21' E 031°42'1211.9
2014-Jul-25 16:33S 29°13' E 031°52'1212.3
2014-Jul-25 15:33S 29°05' E 032°02'1312.9
2014-Jul-25 14:33S 28°56' E 032°13'1615.4
2014-Jul-25 13:33S 28°45' E 032°25'1614.6
2014-Jul-25 12:27S 28°30' E 032°33'  
Track history (hours):
 
Tides and Currents Weather Stations Pressure Air Temp Water Temp Dewpoint Dewpoint Depression Visibility Wind Speed Wind Dir Waves Ship Positions

M\v Black Rhino

Last reported at 2014-Jul-28 00:33 UTC. Time now 2014-Jul-28 04:20 UTC.
Position S 29°14' E 031°50'.

Length 100 m; draft 5.3 m.

Type: Cargo ship. MMSI: 538090408.

Date/timePositionNaut miles runAvg speedWind from/ knotsBaromVisibWave heightAir tempDewpointWater temp
2014-Jul-28 00:33S 29°14' E 031°50'1111.2
2014-Jul-27 23:33S 29°22' E 031°40'1211.6
2014-Jul-27 22:33S 29°30' E 031°31'1111.4
2014-Jul-27 21:33S 29°37' E 031°21'1111.4
2014-Jul-27 20:33S 29°45' E 031°12'1110.8
2014-Jul-27 19:33S 29°53' E 031°03'0 0.3
2014-Jul-27 18:33S 29°52' E 031°03'0 0.0
2014-Jul-27 17:19S 29°52' E 031°03'0 0.0
2014-Jul-27 16:25S 29°52' E 031°03'0 0.0
2014-Jul-27 15:28S 29°52' E 031°03'0 0.0
2014-Jul-27 14:28S 29°52' E 031°03'0 0.0
2014-Jul-27 13:28S 29°52' E 031°03'0 0.0
2014-Jul-27 12:28S 29°52' E 031°03'0 0.0
2014-Jul-27 11:28S 29°52' E 031°03'0 0.0
2014-Jul-27 10:28S 29°52' E 031°03'0 0.0
2014-Jul-27 09:28S 29°52' E 031°03'0 0.0
2014-Jul-27 08:28S 29°52' E 031°03'0 0.0
2014-Jul-27 07:28S 29°52' E 031°03'0 0.0
2014-Jul-27 06:28S 29°52' E 031°03'0 0.0
2014-Jul-27 05:28S 29°52' E 031°03'0 0.0
2014-Jul-27 04:28S 29°52' E 031°03'0 0.0
2014-Jul-27 03:28S 29°52' E 031°03'0 0.0
2014-Jul-27 02:28S 29°52' E 031°03'0 0.0
2014-Jul-27 01:28S 29°52' E 031°03'0 0.0
2014-Jul-27 00:22S 29°52' E 031°03'0 0.0
2014-Jul-26 23:28S 29°52' E 031°03'0 0.0
2014-Jul-26 22:28S 29°52' E 031°03'0 0.0
2014-Jul-26 21:28S 29°52' E 031°03'0 0.0
2014-Jul-26 20:28S 29°52' E 031°03'0 0.0
2014-Jul-26 19:28S 29°52' E 031°03'0 0.0
2014-Jul-26 18:16S 29°52' E 031°03'0 0.0
2014-Jul-26 17:22S 29°52' E 031°03'0 0.0
2014-Jul-26 16:28S 29°52' E 031°03'0 0.0
2014-Jul-26 15:28S 29°52' E 031°03'0 0.0
2014-Jul-26 14:28S 29°52' E 031°03'0 0.0
2014-Jul-26 13:28S 29°52' E 031°03'0 0.0
2014-Jul-26 12:22S 29°52' E 031°03'0 0.0
2014-Jul-26 11:28S 29°52' E 031°03'0 0.0
2014-Jul-26 10:28S 29°52' E 031°03'0 0.0
2014-Jul-26 09:28S 29°52' E 031°03'0 0.0
2014-Jul-26 08:28S 29°52' E 031°03'0 0.0
2014-Jul-26 07:28S 29°52' E 031°03'0 0.0
2014-Jul-26 06:28S 29°52' E 031°03'0 0.0
2014-Jul-26 05:28S 29°52' E 031°03'0 0.0
2014-Jul-26 04:28S 29°52' E 031°03'0 0.0
2014-Jul-26 03:28S 29°52' E 031°03'0 0.0
2014-Jul-26 02:28S 29°52' E 031°03'0 0.0
2014-Jul-26 01:28S 29°52' E 031°03'4 4.2
2014-Jul-26 00:33S 29°49' E 031°05'7 7.2
2014-Jul-25 23:33S 29°47' E 031°13'1 1.3
2014-Jul-25 22:33S 29°47' E 031°12'2 1.9
2014-Jul-25 21:33S 29°47' E 031°09'5 5.3
2014-Jul-25 20:33S 29°44' E 031°14'10 9.8
2014-Jul-25 19:33S 29°37' E 031°22'1111.3
2014-Jul-25 18:33S 29°29' E 031°31'1211.8
2014-Jul-25 17:33S 29°21' E 031°42'1211.9
2014-Jul-25 16:33S 29°13' E 031°52'1212.3
2014-Jul-25 15:33S 29°05' E 032°02'1312.9
2014-Jul-25 14:33S 28°56' E 032°13'1615.4
2014-Jul-25 13:33S 28°45' E 032°25'1614.6
2014-Jul-25 12:27S 28°30' E 032°33'  

Dump ship's entire track history